Time;durP1;ratioP1;P1;durP2;ratioP2;P2;SDS_P1;SDS_P2;PMS_P1;PMS_P2;Temp;Humidity;BMP_temperature;BMP_pressure;BME280_temperature;BME280_humidity;BME280_pressure;Samples;Min_cycle;Max_cycle;Signal;HPM_P1;HPM_P2
2020/12/10 00:00:30;;;;;;;16.38;3.65;;;;;;;7.44;91.38;98828.31;4935935;29;20118;-48
2020/12/10 00:02:58;;;;;;;16.85;3.47;;;;;;;7.44;91.42;98828.31;4936065;29;20123;-51
2020/12/10 00:05:25;;;;;;;23.52;4.50;;;;;;;7.45;91.35;98840.94;4935227;29;20048;-48
2020/12/10 00:07:52;;;;;;;27.27;5.07;;;;;;;7.45;91.52;98832.69;4935614;29;20454;-49
2020/12/10 00:10:19;;;;;;;24.52;5.05;;;;;;;7.47;91.56;98838.59;4935395;29;20050;-49
2020/12/10 00:12:46;;;;;;;19.67;3.28;;;;;;;7.46;91.29;98837.03;4935138;29;20043;-51
2020/12/10 00:15:13;;;;;;;28.65;3.22;;;;;;;7.48;91.38;98842.94;4948023;29;20048;-51
2020/12/10 00:17:39;;;;;;;20.65;3.47;;;;;;;7.48;91.41;98837.44;4957988;28;20070;-50
2020/12/10 00:20:08;;;;;;;15.68;2.67;;;;;;;7.49;91.35;98844.56;4940954;28;20134;-52
2020/12/10 00:22:35;;;;;;;15.05;5.43;;;;;;;7.49;91.45;98841.78;4935068;29;20103;-49
2020/12/10 00:25:05;;;;;;;22.00;3.75;;;;;;;7.49;91.41;98844.56;4949464;29;20040;-49
2020/12/10 00:27:34;;;;;;;14.02;2.45;;;;;;;7.50;91.37;98857.13;4934491;29;20048;-48
2020/12/10 00:30:02;;;;;;;24.63;2.83;;;;;;;7.51;91.37;98857.94;4936147;29;20051;-50
2020/12/10 00:32:29;;;;;;;24.77;3.10;;;;;;;7.51;91.52;98855.19;4949721;29;20118;-49
2020/12/10 00:34:56;;;;;;;12.45;2.88;;;;;;;7.50;91.39;98851.63;4935146;29;20048;-52
2020/12/10 00:37:24;;;;;;;15.82;2.97;;;;;;;7.52;91.45;98851.28;4935007;29;20043;-50
2020/12/10 00:39:55;;;;;;;16.67;3.27;;;;;;;7.51;91.34;98846.91;4934993;29;20063;-49
2020/12/10 00:42:22;;;;;;;21.10;3.70;;;;;;;7.52;91.52;98854.78;4935030;29;20130;-50
2020/12/10 00:44:48;;;;;;;15.48;3.40;;;;;;;7.53;91.32;98844.59;4950470;29;20043;-51
2020/12/10 00:47:18;;;;;;;18.10;2.80;;;;;;;7.53;91.37;98856.41;4949727;29;20071;-48
2020/12/10 00:49:45;;;;;;;15.18;3.15;;;;;;;7.54;91.39;98852.50;4936869;29;20046;-48
2020/12/10 00:52:13;;;;;;;19.85;2.80;;;;;;;7.53;91.33;98850.88;4938201;29;20046;-49
2020/12/10 00:54:40;;;;;;;19.42;3.10;;;;;;;7.51;91.50;98847.72;4938646;29;20058;-48
2020/12/10 00:57:08;;;;;;;26.25;2.88;;;;;;;7.52;91.46;98849.28;4938863;29;20047;-50
2020/12/10 00:59:35;;;;;;;12.30;3.88;;;;;;;7.53;91.25;98845.38;4938261;29;20047;-54
2020/12/10 01:02:02;;;;;;;17.00;2.83;;;;;;;7.53;91.48;98848.13;4937934;29;20075;-51
2020/12/10 01:04:28;;;;;;;19.88;3.42;;;;;;;7.53;91.42;98850.88;4938674;29;20387;-53
2020/12/10 01:06:55;;;;;;;20.90;5.53;;;;;;;7.52;91.59;98860.31;4937432;29;22239;-55
2020/12/10 01:09:21;;;;;;;15.00;2.92;;;;;;;7.54;91.46;98846.97;4936224;29;20139;-49
2020/12/10 01:11:48;;;;;;;14.93;2.72;;;;;;;7.53;91.58;98850.88;4935207;29;20055;-48
2020/12/10 01:14:15;;;;;;;22.63;3.35;;;;;;;7.54;91.54;98852.50;4935772;29;20043;-49
2020/12/10 01:16:41;;;;;;;11.95;2.42;;;;;;;7.55;91.52;98854.06;4936528;29;20075;-51
2020/12/10 01:19:08;;;;;;;9.18;2.30;;;;;;;7.55;91.48;98854.06;4943781;29;20062;-50
2020/12/10 01:21:34;;;;;;;8.93;2.55;;;;;;;7.56;91.58;98855.66;4937514;29;20044;-49
2020/12/10 01:24:02;;;;;;;28.70;4.35;;;;;;;7.58;91.64;98852.53;4935840;29;20040;-53
2020/12/10 01:26:31;;;;;;;27.08;3.78;;;;;;;7.57;91.41;98850.94;4937627;29;20044;-50
2020/12/10 01:28:58;;;;;;;21.92;3.50;;;;;;;7.56;91.53;98844.66;4938171;29;20043;-50
2020/12/10 01:31:24;;;;;;;19.50;3.38;;;;;;;7.57;91.55;98854.47;4948154;29;20502;-48
2020/12/10 01:33:51;;;;;;;15.48;3.10;;;;;;;7.58;91.45;98852.53;4939296;29;20126;-48
2020/12/10 01:36:22;;;;;;;24.27;3.67;;;;;;;7.59;91.44;98860.44;4946248;29;20482;-49
2020/12/10 01:38:49;;;;;;;35.38;5.03;;;;;;;7.57;91.64;98862.75;4945608;29;20039;-48
2020/12/10 01:41:17;;;;;;;26.55;3.58;;;;;;;7.59;91.68;98863.19;4946678;29;20098;-48
2020/12/10 01:43:44;;;;;;;23.70;3.58;;;;;;;7.61;91.60;98871.06;4950835;29;20483;-50
2020/12/10 01:46:10;;;;;;;18.75;2.95;;;;;;;7.62;91.54;98873.47;4947829;29;20493;-49
2020/12/10 01:48:37;;;;;;;29.83;4.13;;;;;;;7.63;91.55;98880.53;4937747;29;20067;-50
2020/12/10 01:51:04;;;;;;;25.63;6.63;;;;;;;7.63;91.51;98883.28;4938013;29;20107;-48
2020/12/10 01:53:30;;;;;;;23.92;4.82;;;;;;;7.63;91.55;98883.28;4940232;29;20047;-51
2020/12/10 01:55:57;;;;;;;19.05;3.45;;;;;;;7.66;91.73;98881.75;4939313;29;20051;-49
2020/12/10 01:58:23;;;;;;;18.08;3.25;;;;;;;7.65;91.46;98885.69;4956757;29;20110;-50
2020/12/10 02:00:52;;;;;;;30.13;3.60;;;;;;;7.67;91.60;98900.69;4941523;29;20067;-51
2020/12/10 02:03:20;;;;;;;17.83;3.85;;;;;;;7.66;91.70;98899.09;4941400;29;20495;-48
2020/12/10 02:05:47;;;;;;;22.77;3.47;;;;;;;7.67;91.65;98900.69;4945301;29;20070;-50
2020/12/10 02:08:16;;;;;;;19.88;3.60;;;;;;;7.67;91.72;98895.16;4937958;29;20055;-48
2020/12/10 02:10:43;;;;;;;20.95;3.40;;;;;;;7.69;91.55;98903.84;4950924;29;20047;-50
2020/12/10 02:13:09;;;;;;;23.10;4.07;;;;;;;7.70;91.75;98908.22;4944381;29;20474;-48
2020/12/10 02:15:36;;;;;;;25.70;4.88;;;;;;;7.70;91.79;98913.72;4953977;29;20543;-50
2020/12/10 02:18:05;;;;;;;16.88;3.78;;;;;;;7.71;91.58;98918.03;4956293;29;20090;-50
2020/12/10 02:20:35;;;;;;;19.77;4.70;;;;;;;7.71;91.73;98918.03;4940402;29;20079;-48
2020/12/10 02:23:05;;;;;;;23.90;4.15;;;;;;;7.69;91.76;98917.63;4940282;29;20050;-48
2020/12/10 02:25:32;;;;;;;32.17;5.43;;;;;;;7.70;91.67;98916.47;4952954;29;20047;-50
2020/12/10 02:28:09;;;;;;;18.77;3.67;;;;;;;7.71;91.72;98915.28;4950336;29;20051;-48
2020/12/10 02:30:38;;;;;;;13.95;3.50;;;;;;;7.73;91.76;98910.19;4956173;29;20058;-49
2020/12/10 02:33:06;;;;;;;21.30;4.13;;;;;;;7.74;91.77;98922.81;4940892;29;20048;-48
2020/12/10 02:35:35;;;;;;;23.73;4.93;;;;;;;7.75;91.76;98913.41;4952986;29;20129;-49
2020/12/10 02:38:04;;;;;;;25.77;5.55;;;;;;;7.76;92.00;98928.75;4942131;29;20505;-48
2020/12/10 02:40:36;;;;;;;26.50;5.90;;;;;;;7.76;91.75;98920.47;4935642;29;20064;-48
2020/12/10 02:43:03;;;;;;;22.95;5.88;;;;;;;7.76;91.76;98923.22;4941281;29;20405;-48
2020/12/10 02:45:29;;;;;;;25.70;5.60;;;;;;;7.77;91.80;98927.59;4951951;29;20057;-47
2020/12/10 02:47:57;;;;;;;35.85;6.50;;;;;;;7.76;91.76;98925.97;4943433;29;20099;-49
2020/12/10 02:50:24;;;;;;;29.90;7.82;;;;;;;7.78;91.81;98933.91;4937319;29;20470;-49
2020/12/10 02:52:50;;;;;;;31.17;6.65;;;;;;;7.78;91.93;98929.16;4936704;29;20110;-49
2020/12/10 02:55:17;;;;;;;18.75;4.93;;;;;;;7.77;91.87;98929.53;4949467;29;20857;-49
2020/12/10 02:57:43;;;;;;;15.80;5.20;;;;;;;7.79;91.84;98932.72;4945555;29;20494;-49
2020/12/10 03:00:10;;;;;;;21.65;4.88;;;;;;;7.80;91.74;98943.38;4935553;29;20210;-49
2020/12/10 03:02:37;;;;;;;18.85;4.55;;;;;;;7.79;91.80;98938.22;4938734;29;20047;-48
2020/12/10 03:05:05;;;;;;;17.45;3.95;;;;;;;7.80;91.91;98948.88;4936857;29;20048;-48
2020/12/10 03:07:32;;;;;;;18.48;4.47;;;;;;;7.81;91.78;98955.97;4934535;29;20052;-49
2020/12/10 03:10:00;;;;;;;23.90;5.20;;;;;;;7.81;91.93;98955.19;4936332;29;20071;-49
2020/12/10 03:12:29;;;;;;;23.92;6.03;;;;;;;7.82;91.70;98957.56;4938376;29;20050;-53
2020/12/10 03:14:56;;;;;;;24.15;4.93;;;;;;;7.81;91.89;98953.22;4943201;29;20044;-48
2020/12/10 03:17:26;;;;;;;18.48;4.15;;;;;;;7.83;91.83;98966.63;4938762;29;20426;-48
2020/12/10 03:19:52;;;;;;;25.02;4.75;;;;;;;7.83;91.77;98958.38;4940555;29;20071;-48
2020/12/10 03:22:19;;;;;;;18.65;5.03;;;;;;;7.82;91.72;98965.84;4950570;29;20607;-49
2020/12/10 03:24:45;;;;;;;29.02;5.53;;;;;;;7.82;91.87;98968.59;4944769;29;20073;-49
2020/12/10 03:27:12;;;;;;;19.10;4.65;;;;;;;7.82;91.85;98974.09;4954547;29;20081;-48
2020/12/10 03:29:39;;;;;;;20.05;5.03;;;;;;;7.82;91.70;98968.59;4955203;29;20134;-49
2020/12/10 03:32:05;;;;;;;17.50;4.13;;;;;;;7.82;91.83;98965.03;4948820;29;20480;-50
2020/12/10 03:34:33;;;;;;;19.77;5.35;;;;;;;7.83;91.72;98974.91;4935773;29;20490;-49
2020/12/10 03:37:01;;;;;;;20.52;5.35;;;;;;;7.82;91.74;98968.59;4939615;29;20085;-48
2020/12/10 03:39:29;;;;;;;23.65;6.45;;;;;;;7.83;91.81;98978.47;4939635;29;20122;-49
2020/12/10 03:41:57;;;;;;;23.05;5.57;;;;;;;7.83;91.75;98983.16;4952484;29;20520;-48
2020/12/10 03:44:24;;;;;;;27.25;6.57;;;;;;;7.83;91.72;98975.69;4948710;29;20039;-48
2020/12/10 03:46:50;;;;;;;23.50;5.45;;;;;;;7.83;91.68;98981.22;4936115;29;20621;-48
2020/12/10 03:49:17;;;;;;;19.33;5.80;;;;;;;7.83;91.78;98981.22;4935987;29;20081;-48
2020/12/10 03:51:43;;;;;;;22.77;6.70;;;;;;;7.85;91.69;98987.13;4936273;29;20075;-50
2020/12/10 03:54:10;;;;;;;24.52;6.47;;;;;;;7.85;91.72;98989.09;4931023;29;20110;-48
2020/12/10 03:56:36;;;;;;;18.52;6.03;;;;;;;7.86;91.75;98996.22;4935754;29;20139;-48
2020/12/10 03:59:04;;;;;;;17.92;5.20;;;;;;;7.85;91.77;98986.34;4934349;29;20055;-52
2020/12/10 04:01:31;;;;;;;20.05;5.22;;;;;;;7.83;91.76;98983.97;4935866;29;20076;-49
2020/12/10 04:03:58;;;;;;;22.33;5.50;;;;;;;7.84;91.69;98988.28;4935060;29;20050;-53
2020/12/10 04:06:25;;;;;;;17.25;5.30;;;;;;;7.83;91.71;98986.72;4936011;29;20075;-48
2020/12/10 04:08:53;;;;;;;16.08;6.05;;;;;;;7.83;91.78;98981.22;4929155;29;20052;-48
2020/12/10 04:11:19;;;;;;;27.98;6.35;;;;;;;7.84;91.67;98977.28;4935028;29;20514;-49
2020/12/10 04:13:46;;;;;;;15.32;5.43;;;;;;;7.85;91.61;98987.13;4939001;29;20457;-49
2020/12/10 04:16:12;;;;;;;23.05;6.25;;;;;;;7.86;91.75;98985.94;4955204;29;20050;-48
2020/12/10 04:18:40;;;;;;;22.30;6.13;;;;;;;7.87;91.72;98995.03;4947368;29;20593;-49
2020/12/10 04:21:10;;;;;;;22.48;6.38;;;;;;;7.88;91.84;98991.13;4946041;29;20127;-49
2020/12/10 04:23:37;;;;;;;19.23;6.22;;;;;;;7.88;91.87;98991.91;4937177;29;20047;-49
2020/12/10 04:26:03;;;;;;;14.63;5.57;;;;;;;7.88;91.81;98982.84;4946060;29;20479;-49
2020/12/10 04:28:30;;;;;;;24.35;5.40;;;;;;;7.87;91.76;98975.72;4939761;29;20048;-48
2020/12/10 04:30:57;;;;;;;21.33;5.22;;;;;;;7.87;91.73;98982.03;4946025;29;20408;-48
2020/12/10 04:33:23;;;;;;;16.70;5.55;;;;;;;7.87;91.74;98976.53;4940787;29;20078;-48
2020/12/10 04:35:50;;;;;;;25.05;6.25;;;;;;;7.88;91.70;98977.34;4946313;29;20482;-50
2020/12/10 04:38:16;;;;;;;20.23;5.05;;;;;;;7.86;91.92;98983.19;4939498;29;20075;-48
2020/12/10 04:40:43;;;;;;;24.15;5.63;;;;;;;7.87;91.90;98975.72;4957357;29;20071;-48
2020/12/10 04:43:11;;;;;;;15.10;4.13;;;;;;;7.87;91.79;98975.72;4946845;29;20068;-49
2020/12/10 04:45:37;;;;;;;15.40;4.28;;;;;;;7.86;91.92;98982.44;4926752;29;20565;-48
2020/12/10 04:48:04;;;;;;;18.48;4.97;;;;;;;7.86;91.80;98985.19;4939028;29;20071;-48
2020/12/10 04:50:34;;;;;;;18.95;5.43;;;;;;;7.88;91.91;98991.91;4940341;29;20442;-48
2020/12/10 04:53:01;;;;;;;16.45;4.57;;;;;;;7.88;91.88;98991.91;4938350;29;20054;-48
2020/12/10 04:55:27;;;;;;;19.10;6.03;;;;;;;7.88;91.90;98994.66;4939796;29;20048;-48
2020/12/10 04:57:57;;;;;;;18.30;5.32;;;;;;;7.90;91.87;98995.09;4947418;29;20421;-48
2020/12/10 05:00:24;;;;;;;16.02;5.82;;;;;;;7.90;91.89;98997.84;4944528;29;20138;-48
2020/12/10 05:02:51;;;;;;;16.52;6.05;;;;;;;7.91;91.74;98999.44;4938531;29;20078;-48
2020/12/10 05:05:28;;;;;;;16.60;6.00;;;;;;;7.89;91.76;98985.22;4919825;29;20040;-48
2020/12/10 05:07:58;;;;;;;18.58;5.78;;;;;;;7.91;91.75;98990.38;4932160;29;20048;-49
2020/12/10 05:10:24;;;;;;;26.25;5.60;;;;;;;7.91;91.83;98982.13;4948600;29;20066;-48
2020/12/10 05:13:05;;;;;;;17.58;5.90;;;;;;;7.90;91.89;98988.78;4957769;29;20500;-48
2020/12/10 05:15:33;;;;;;;21.05;5.78;;;;;;;7.91;91.81;98999.44;4918608;29;20376;-48
2020/12/10 05:18:11;;;;;;;21.67;6.38;;;;;;;7.90;91.90;99008.06;4935995;29;20059;-48
2020/12/10 05:20:52;;;;;;;21.58;6.90;;;;;;;7.90;91.86;99025.41;4929066;29;20044;-48
2020/12/10 05:23:37;;;;;;;22.73;7.40;;;;;;;7.91;91.83;99013.22;4936275;29;20075;-48
2020/12/10 05:26:05;;;;;;;32.83;7.35;;;;;;;7.91;91.83;99023.44;4935781;29;20142;-48
2020/12/10 05:28:42;;;;;;;30.60;8.52;;;;;;;7.92;91.86;99030.53;4938361;29;20075;-48
2020/12/10 05:31:26;;;;;;;34.00;7.93;;;;;;;7.92;91.91;99030.53;4937891;29;20123;-49
2020/12/10 05:33:57;;;;;;;92.82;12.32;;;;;;;7.94;91.91;99040.00;4937689;29;20039;-49
2020/12/10 05:36:25;;;;;;;54.75;10.45;;;;;;;7.96;91.77;99028.63;4937484;29;20040;-48
2020/12/10 05:38:51;;;;;;;115.95;15.23;;;;;;;7.97;91.90;99030.22;4937704;29;20050;-48
2020/12/10 05:41:23;;;;;;;117.97;17.35;;;;;;;7.96;91.99;99040.47;4937718;29;20509;-49
2020/12/10 05:43:50;;;;;;;135.82;18.35;;;;;;;7.98;91.99;99043.63;4937826;29;20118;-48
2020/12/10 05:46:25;;;;;;;57.80;11.73;;;;;;;7.99;92.04;99049.94;4936765;29;20099;-50
2020/12/10 05:48:53;;;;;;;95.30;16.67;;;;;;;8.02;91.79;99040.16;4937749;29;20044;-48
2020/12/10 05:51:22;;;;;;;95.32;19.25;;;;;;;8.01;92.00;99038.53;4937501;29;20083;-48
2020/12/10 05:53:49;;;;;;;98.07;15.85;;;;;;;8.00;91.98;99040.50;4936617;29;20159;-48
2020/12/10 05:56:17;;;;;;;169.80;21.42;;;;;;;8.02;92.05;99037.38;4937294;29;20487;-48
2020/12/10 05:58:48;;;;;;;151.32;22.80;;;;;;;8.00;92.00;99037.75;4937948;29;20048;-48
2020/12/10 06:01:26;;;;;;;153.00;24.58;;;;;;;7.99;92.01;99036.16;4937583;29;20131;-48
2020/12/10 06:03:55;;;;;;;145.80;24.92;;;;;;;8.01;92.07;99041.31;4937107;29;20479;-48
2020/12/10 06:06:21;;;;;;;81.03;20.77;;;;;;;8.01;91.94;99030.28;4940323;29;20058;-48
2020/12/10 06:08:49;;;;;;;90.18;21.02;;;;;;;8.02;91.65;99031.88;4936425;29;20054;-48
2020/12/10 06:11:20;;;;;;;69.35;19.52;;;;;;;8.02;92.00;99031.88;4937321;29;20486;-48
2020/12/10 06:13:47;;;;;;;59.38;15.55;;;;;;;8.02;91.89;99040.16;4936727;29;20075;-48
2020/12/10 06:16:19;;;;;;;76.13;17.05;;;;;;;8.02;91.85;99040.16;4926007;29;20489;-50
2020/12/10 06:19:01;;;;;;;;;;;;;;;7.98;91.92;99037.31;4932882;29;20402;-48
2020/12/10 06:21:31;;;;;;;84.65;16.35;;;;;;;7.97;91.79;99035.72;4936833;29;20440;-50
2020/12/10 06:23:57;;;;;;;54.00;17.77;;;;;;;7.96;91.82;99039.66;4935959;29;20048;-50
2020/12/10 06:26:23;;;;;;;49.63;18.15;;;;;;;7.94;91.87;99048.28;4936925;29;20094;-50
2020/12/10 06:28:51;;;;;;;38.40;15.38;;;;;;;7.91;91.71;99046.28;4937056;29;20095;-50
2020/12/10 06:31:18;;;;;;;25.55;9.95;;;;;;;7.85;91.43;99047.75;4936975;29;20044;-52
2020/12/10 06:33:46;;;;;;;17.55;8.73;;;;;;;7.77;91.31;99045.25;4936365;29;20091;-48
2020/12/10 06:36:22;;;;;;;15.75;8.15;;;;;;;7.69;91.09;99055.34;4936301;29;20052;-48
2020/12/10 06:38:50;;;;;;;14.85;8.30;;;;;;;7.65;91.25;99056.44;4935567;29;20091;-48
2020/12/10 06:41:20;;;;;;;19.83;9.15;;;;;;;7.61;90.88;99077.59;4936053;29;20083;-50
2020/12/10 06:43:50;;;;;;;20.83;10.50;;;;;;;7.56;90.82;99070.44;4935328;29;20379;-49
2020/12/10 06:46:17;;;;;;;25.67;11.88;;;;;;;7.52;90.79;99077.84;4935772;29;20082;-50
2020/12/10 06:48:46;;;;;;;32.95;12.60;;;;;;;7.47;90.62;99072.63;4936485;29;20052;-49
2020/12/10 06:51:17;;;;;;;42.50;13.38;;;;;;;7.41;90.46;99063.09;4951032;28;20043;-48
2020/12/10 06:54:07;;;;;;;37.00;14.52;;;;;;;7.38;90.56;99063.81;4936092;29;20508;-48
2020/12/10 06:56:54;;;;;;;57.78;15.07;;;;;;;7.35;90.55;99059.03;4936077;29;20475;-50
2020/12/10 06:59:43;;;;;;;80.93;19.73;;;;;;;7.34;90.32;99060.19;4936448;29;20071;-50
2020/12/10 07:02:19;;;;;;;108.97;20.88;;;;;;;7.31;90.60;99063.66;4937385;29;20055;-50
2020/12/10 07:04:50;;;;;;;90.60;18.63;;;;;;;7.30;90.39;99062.91;4944568;29;20047;-48
2020/12/10 07:07:25;;;;;;;118.95;22.10;;;;;;;7.29;90.37;99061.28;4936064;29;20055;-50
2020/12/10 07:10:00;;;;;;;138.40;23.95;;;;;;;7.29;90.51;99058.53;4936613;29;20043;-50
2020/12/10 07:12:35;;;;;;;141.63;24.70;;;;;;;7.30;90.01;99062.09;4936092;29;20044;-52
2020/12/10 07:15:26;;;;;;;155.68;27.20;;;;;;;7.27;90.50;99063.63;4931235;29;20434;-48
2020/12/10 07:17:57;;;;;;;166.23;28.70;;;;;;;7.28;90.25;99058.91;4934063;29;20048;-48
2020/12/10 07:20:24;;;;;;;171.57;28.35;;;;;;;7.26;90.40;99063.97;4950802;29;20077;-53
2020/12/10 07:22:50;;;;;;;121.40;24.77;;;;;;;7.25;90.43;99049.41;4935335;29;20067;-49
2020/12/10 07:25:17;;;;;;;194.88;30.73;;;;;;;7.26;90.57;99056.50;4950074;28;20512;-50
2020/12/10 07:27:44;;;;;;;146.90;27.85;;;;;;;7.24;90.34;99055.28;4935081;29;20051;-51
2020/12/10 07:30:31;;;;;;;159.05;29.27;;;;;;;7.24;90.32;99060.78;4935986;29;20054;-49
2020/12/10 07:32:59;;;;;;;189.02;33.75;;;;;;;7.23;90.31;99056.44;4934264;29;20503;-48
2020/12/10 07:35:33;;;;;;;138.05;29.83;;;;;;;7.21;90.49;99058.75;4935722;29;20044;-47
2020/12/10 07:38:13;;;;;;;163.35;32.03;;;;;;;7.21;90.40;99059.56;4934228;29;20119;-49
2020/12/10 07:40:40;;;;;;;112.82;27.00;;;;;;;7.21;90.36;99075.28;4935560;29;20050;-50
2020/12/10 07:43:08;;;;;;;105.65;27.88;;;;;;;7.19;90.29;99078.41;4935940;29;20068;-50
2020/12/10 07:45:38;;;;;;;135.55;29.00;;;;;;;7.18;90.41;99076.00;4935541;29;20071;-50
2020/12/10 07:48:06;;;;;;;204.77;38.20;;;;;;;7.17;90.34;99082.69;4935774;29;20044;-50
2020/12/10 07:50:35;;;;;;;132.45;32.30;;;;;;;7.17;90.43;99068.91;4935111;29;20098;-50
2020/12/10 07:53:07;;;;;;;114.40;27.67;;;;;;;7.18;90.48;99070.50;4934670;29;20435;-50
2020/12/10 07:55:44;;;;;;;135.98;31.33;;;;;;;7.15;90.32;99076.72;4948375;29;20427;-49
2020/12/10 07:58:10;;;;;;;102.45;28.25;;;;;;;7.17;90.24;99063.41;4928365;29;20134;-49
2020/12/10 08:00:38;;;;;;;114.70;30.00;;;;;;;7.15;90.33;99071.22;4937210;29;20911;-49
2020/12/10 08:03:16;;;;;;;104.40;27.65;;;;;;;7.16;90.42;99078.31;4939014;29;20546;-51
2020/12/10 08:05:44;;;;;;;133.55;32.53;;;;;;;7.16;90.40;99067.31;4937791;29;20533;-49
2020/12/10 08:08:11;;;;;;;100.05;29.10;;;;;;;7.15;90.33;99065.72;4938915;29;20079;-48
2020/12/10 08:10:39;;;;;;;96.90;30.88;;;;;;;7.17;90.56;99055.16;4968092;28;20047;-49
2020/12/10 08:13:19;;;;;;;89.43;27.05;;;;;;;7.15;90.21;99062.97;4952317;29;20086;-49
2020/12/10 08:15:48;;;;;;;94.00;27.90;;;;;;;7.18;90.35;99059.47;4937884;29;20067;-48
2020/12/10 08:18:17;;;;;;;104.40;28.70;;;;;;;7.19;90.30;99061.09;4947452;28;20146;-50
2020/12/10 08:20:49;;;;;;;70.78;23.55;;;;;;;7.19;90.16;99072.09;4951734;29;20118;-48
2020/12/10 08:23:17;;;;;;;73.68;22.45;;;;;;;7.18;90.20;99068.53;4952407;29;20398;-49
2020/12/10 08:25:46;;;;;;;72.50;24.08;;;;;;;7.19;90.06;99072.91;4939003;29;20108;-48
2020/12/10 08:28:13;;;;;;;67.88;22.50;;;;;;;7.18;90.14;99081.50;4937849;29;20044;-48
2020/12/10 08:30:55;;;;;;;63.45;21.17;;;;;;;7.18;90.14;99082.31;4948327;29;20043;-49
2020/12/10 08:33:32;;;;;;;60.22;21.58;;;;;;;7.19;90.07;99083.09;4941682;29;20035;-51
2020/12/10 08:35:58;;;;;;;63.53;21.38;;;;;;;7.17;89.94;99090.94;4921997;29;20047;-54
2020/12/10 08:38:25;;;;;;;53.47;19.25;;;;;;;7.18;90.04;99095.25;4928528;29;20118;-55
2020/12/10 08:40:56;;;;;;;50.65;18.65;;;;;;;7.16;90.11;99098.38;4934705;29;20151;-51
2020/12/10 08:43:22;;;;;;;48.92;17.45;;;;;;;7.18;89.94;99100.75;4933004;29;20051;-51
2020/12/10 08:45:49;;;;;;;52.47;18.85;;;;;;;7.18;90.08;99107.06;4937128;29;20059;-51
2020/12/10 08:48:25;;;;;;;38.47;16.35;;;;;;;7.19;90.12;99110.63;4917819;29;20091;-51
2020/12/10 08:51:14;;;;;;;39.88;15.68;;;;;;;7.18;90.16;99115.31;4933664;29;20058;-49
2020/12/10 08:53:49;;;;;;;41.00;14.82;;;;;;;7.18;89.91;99120.03;4935259;29;20046;-53
2020/12/10 08:56:21;;;;;;;30.02;13.73;;;;;;;7.20;90.06;99117.72;4940864;29;20386;-50
2020/12/10 08:58:49;;;;;;;27.33;12.75;;;;;;;7.20;90.09;99126.00;4936824;29;20068;-54
2020/12/10 09:01:16;;;;;;;27.90;12.15;;;;;;;7.18;90.10;99131.03;4936558;29;20128;-53
2020/12/10 09:03:43;;;;;;;30.80;11.90;;;;;;;7.16;90.06;99122.34;4931670;29;20036;-54
2020/12/10 09:06:11;;;;;;;27.17;11.73;;;;;;;7.15;90.02;99120.75;4929460;29;20050;-56
2020/12/10 09:08:38;;;;;;;23.95;11.35;;;;;;;7.12;89.94;99108.50;4941743;29;20150;-51
2020/12/10 09:11:04;;;;;;;21.63;10.88;;;;;;;7.15;89.99;99118.00;4939634;29;20145;-49
2020/12/10 09:13:30;;;;;;;22.70;10.68;;;;;;;7.17;89.85;99113.75;4942998;29;20130;-53
2020/12/10 09:15:57;;;;;;;20.63;9.88;;;;;;;7.18;89.81;99118.09;4934972;29;20079;-54
2020/12/10 09:18:24;;;;;;;18.15;8.05;;;;;;;7.17;89.67;99122.00;4935348;29;20146;-52
2020/12/10 09:20:55;;;;;;;19.15;9.82;;;;;;;7.17;89.88;99113.75;4935239;29;20047;-52
2020/12/10 09:23:21;;;;;;;20.15;9.45;;;;;;;7.17;89.64;99102.75;4928005;29;20376;-49
2020/12/10 09:25:51;;;;;;;16.75;7.80;;;;;;;7.17;89.59;99101.94;4932208;29;20835;-52
2020/12/10 09:28:33;;;;;;;16.60;7.45;;;;;;;7.17;89.59;99112.94;4921380;29;20477;-49
2020/12/10 09:31:11;;;;;;;17.42;9.15;;;;;;;7.18;89.59;99114.53;4932965;29;20569;-54
2020/12/10 09:33:46;;;;;;;18.25;7.45;;;;;;;7.16;89.60;99109.41;4918552;29;20063;-50
2020/12/10 09:36:12;;;;;;;19.17;8.07;;;;;;;7.13;89.79;99107.38;4928810;29;20095;-52
2020/12/10 09:38:40;;;;;;;25.15;9.80;;;;;;;7.13;89.57;99098.31;4936166;29;20044;-55
2020/12/10 09:41:08;;;;;;;19.83;9.77;;;;;;;7.13;89.46;99101.06;4934794;29;20060;-50
2020/12/10 09:43:35;;;;;;;22.88;9.45;;;;;;;7.12;89.53;99099.47;4935386;29;20446;-51
2020/12/10 09:46:09;;;;;;;26.42;10.90;;;;;;;7.11;89.54;99103.38;4934505;29;20047;-50
2020/12/10 09:48:36;;;;;;;27.65;10.82;;;;;;;7.10;89.49;99101.78;4934797;29;20067;-53
2020/12/10 09:51:12;;;;;;;21.48;10.05;;;;;;;7.11;89.39;99100.63;4933990;29;20047;-51
2020/12/10 09:58:39;;;;;;;20.60;9.23;;;;;;;7.19;89.23;99094.13;4934304;29;20110;-50
2020/12/10 10:01:16;;;;;;;17.77;8.35;;;;;;;7.22;89.56;99076.88;4948835;29;20044;-52
2020/12/10 10:03:42;;;;;;;21.13;8.90;;;;;;;7.27;89.32;99084.84;4948804;29;20364;-51
2020/12/10 10:06:11;;;;;;;21.98;9.00;;;;;;;7.31;89.23;99081.00;4937548;28;20059;-49
2020/12/10 10:08:57;;;;;;;23.08;9.20;;;;;;;7.34;89.25;99077.50;4934623;29;20068;-51
2020/12/10 10:11:30;;;;;;;25.63;11.50;;;;;;;7.39;89.13;99081.91;4933883;29;20094;-52
2020/12/10 10:13:56;;;;;;;24.25;10.50;;;;;;;7.41;89.16;99085.13;4937044;29;20482;-53
2020/12/10 10:16:30;;;;;;;23.30;10.82;;;;;;;7.43;89.35;99082.00;4936027;29;20044;-53
2020/12/10 10:18:58;;;;;;;25.90;11.38;;;;;;;7.44;89.09;99080.84;4905698;29;20509;-49
2020/12/10 10:21:28;;;;;;;19.55;9.95;;;;;;;7.42;88.91;99080.38;4915108;29;20063;-50
2020/12/10 10:24:18;;;;;;;19.83;10.40;;;;;;;7.42;88.88;99078.44;4904426;29;20044;-52
2020/12/10 10:26:55;;;;;;;12.95;7.57;;;;;;;7.41;88.78;99074.09;4914318;29;20112;-51
2020/12/10 10:29:22;;;;;;;17.70;8.07;;;;;;;7.44;88.87;99073.34;4914057;29;20139;-54
2020/12/10 10:32:09;;;;;;;29.20;9.77;;;;;;;7.47;88.87;99069.88;4915191;29;20143;-53
2020/12/10 10:34:40;;;;;;;13.55;6.20;;;;;;;7.51;88.77;99057.00;4914649;29;20048;-54
2020/12/10 10:37:06;;;;;;;15.48;6.10;;;;;;;7.56;88.73;99053.13;4913587;29;20060;-54
2020/12/10 10:39:50;;;;;;;12.48;6.05;;;;;;;7.58;88.70;99040.59;4926638;29;20044;-50
2020/12/10 10:42:21;;;;;;;13.98;5.57;;;;;;;7.60;88.62;99043.75;4912992;29;20546;-51
2020/12/10 10:44:48;;;;;;;9.73;5.45;;;;;;;7.58;88.78;99046.09;4913241;29;20119;-52
2020/12/10 10:47:16;;;;;;;12.38;6.40;;;;;;;7.57;88.39;99038.97;4909596;29;20443;-49
2020/12/10 10:49:47;;;;;;;18.17;8.23;;;;;;;7.56;88.38;99037.41;4929188;29;20156;-51
2020/12/10 10:52:14;;;;;;;13.05;7.80;;;;;;;7.56;88.33;99042.91;4914803;29;20032;-54
2020/12/10 10:54:40;;;;;;;13.65;6.35;;;;;;;7.57;88.33;99035.44;4913686;29;20099;-50
2020/12/10 10:57:11;;;;;;;15.20;6.90;;;;;;;7.59;88.26;99033.91;4924756;29;20055;-51
2020/12/10 10:59:37;;;;;;;11.65;5.63;;;;;;;7.60;88.21;99027.22;4926048;29;20052;-53
2020/12/10 11:02:27;;;;;;;10.65;5.93;;;;;;;7.61;88.37;99022.53;4914912;29;20056;-53
2020/12/10 11:04:55;;;;;;;11.70;7.05;;;;;;;7.60;88.33;99015.44;4913623;29;20073;-52
2020/12/10 11:07:21;;;;;;;10.15;5.80;;;;;;;7.62;88.39;99021.38;4913753;29;20107;-51
2020/12/10 11:09:48;;;;;;;6.47;3.85;;;;;;;7.62;88.13;99010.34;4914272;29;20941;-52
2020/12/10 11:12:14;;;;;;;8.38;3.75;;;;;;;7.62;88.32;98997.41;4915948;29;20052;-51
2020/12/10 11:14:40;;;;;;;4.57;3.38;;;;;;;7.63;88.26;98982.44;4913585;29;20044;-52
2020/12/10 11:17:28;;;;;;;3.97;2.40;;;;;;;7.64;88.16;98973.03;4920256;29;20066;-54
2020/12/10 11:19:54;;;;;;;5.10;3.10;;;;;;;7.68;88.04;98967.56;4931197;29;20553;-51
2020/12/10 11:22:23;;;;;;;8.82;3.70;;;;;;;7.74;88.36;98966.88;4933278;29;20044;-54
2020/12/10 11:24:50;;;;;;;6.75;3.53;;;;;;;7.84;88.30;98946.97;4944561;29;20114;-52
2020/12/10 11:27:16;;;;;;;5.18;2.75;;;;;;;7.91;88.29;98938.81;4933587;29;20047;-51
2020/12/10 11:29:46;;;;;;;6.53;2.83;;;;;;;7.97;88.05;98937.31;4938194;29;20494;-56
2020/12/10 11:32:12;;;;;;;6.55;2.58;;;;;;;8.04;88.12;98930.34;4916417;29;20056;-51
2020/12/10 11:34:39;;;;;;;6.68;2.88;;;;;;;8.07;88.00;98929.59;4932131;29;20517;-50
2020/12/10 11:37:10;;;;;;;8.98;2.80;;;;;;;8.06;87.77;98922.47;4941906;29;20043;-53
2020/12/10 11:39:36;;;;;;;7.75;2.38;;;;;;;8.05;87.61;98929.19;4946183;29;20040;-51
2020/12/10 11:42:03;;;;;;;9.15;2.63;;;;;;;8.05;87.62;98923.66;4935597;29;20084;-52
2020/12/10 11:44:30;;;;;;;4.75;2.55;;;;;;;8.09;87.39;98905.19;4944786;29;20083;-55
2020/12/10 11:46:57;;;;;;;5.28;2.22;;;;;;;8.14;87.55;98896.59;4932956;29;20079;-54